Time;durP1;ratioP1;P1;durP2;ratioP2;P2;SDS_P1;SDS_P2;PMS_P1;PMS_P2;Temp;Humidity;BMP_temperature;BMP_pressure;BME280_temperature;BME280_humidity;BME280_pressure;Samples;Min_cycle;Max_cycle;Signal;HPM_P1;HPM_P2
2023/04/11 00:00:33;;;;;;;9.70;6.22;;;;;;;7.07;71.91;92790.81;5122495;28;20072;-76
2023/04/11 00:03:01;;;;;;;9.50;6.18;;;;;;;7.05;71.52;92788.44;5120254;28;20050;-76
2023/04/11 00:05:30;;;;;;;9.32;5.90;;;;;;;7.05;71.28;92790.28;5119072;28;20055;-76
2023/04/11 00:07:56;;;;;;;10.27;6.22;;;;;;;7.04;72.03;92789.47;5124576;27;20045;-76
2023/04/11 00:10:21;;;;;;;12.27;6.20;;;;;;;7.01;71.85;92797.03;5121078;27;20389;-76
2023/04/11 00:12:47;;;;;;;10.73;6.05;;;;;;;7.00;71.37;92793.66;5127690;27;20055;-76
2023/04/11 00:15:14;;;;;;;10.05;6.32;;;;;;;7.02;71.63;92793.38;5123286;27;20032;-77
2023/04/11 00:17:44;;;;;;;9.73;6.03;;;;;;;6.98;71.58;92781.91;5122797;27;20187;-76
2023/04/11 00:20:11;;;;;;;11.13;6.00;;;;;;;6.94;71.80;92776.44;5111284;27;20055;-76
2023/04/11 00:22:38;;;;;;;15.30;7.03;;;;;;;6.90;72.15;92767.59;5131949;27;20037;-76
2023/04/11 00:25:04;;;;;;;12.43;6.63;;;;;;;6.86;72.11;92769.91;5105216;27;20081;-76
2023/04/11 00:27:30;;;;;;;10.15;5.97;;;;;;;6.86;72.08;92775.09;5108058;27;20062;-76
2023/04/11 00:29:56;;;;;;;9.55;5.65;;;;;;;6.88;72.11;92772.25;5105023;27;20044;-76
2023/04/11 00:32:25;;;;;;;10.35;6.25;;;;;;;6.88;72.13;92773.03;5090506;27;20031;-76
2023/04/11 00:34:51;;;;;;;12.07;6.13;;;;;;;6.89;72.01;92763.44;5122936;27;20073;-76
2023/04/11 00:37:20;;;;;;;10.20;5.47;;;;;;;6.91;72.25;92768.34;5127139;27;20074;-76
2023/04/11 00:39:49;;;;;;;9.07;5.93;;;;;;;6.92;71.61;92767.34;5107907;27;20069;-76
2023/04/11 00:42:15;;;;;;;10.45;5.80;;;;;;;6.93;72.35;92758.47;5118888;27;20059;-76
2023/04/11 00:44:40;;;;;;;9.98;6.05;;;;;;;6.93;72.74;92748.84;5126616;27;20040;-76
2023/04/11 00:47:06;;;;;;;9.90;6.40;;;;;;;6.95;72.18;92751.19;5106533;27;20043;-76
2023/04/11 00:49:33;;;;;;;9.82;5.53;;;;;;;6.94;71.97;92755.63;5095733;27;20038;-76
2023/04/11 00:51:59;;;;;;;8.82;5.57;;;;;;;6.94;71.81;92766.03;5089695;27;20521;-76
2023/04/11 00:54:29;;;;;;;10.02;6.38;;;;;;;6.95;72.04;92769.41;5102204;27;20509;-76
2023/04/11 00:57:00;;;;;;;11.48;5.93;;;;;;;6.96;72.57;92768.38;5105369;27;20035;-76
2023/04/11 00:59:30;;;;;;;10.13;5.97;;;;;;;6.98;72.65;92771.50;5121061;27;20031;-76
2023/04/11 01:01:57;;;;;;;10.00;5.78;;;;;;;6.98;72.56;92766.28;5105322;27;20512;-76
2023/04/11 01:04:23;;;;;;;11.23;6.53;;;;;;;6.99;72.24;92763.44;5107452;27;20085;-76
2023/04/11 01:06:54;;;;;;;9.70;6.03;;;;;;;6.99;72.17;92757.47;5106938;27;20035;-75
2023/04/11 01:09:23;;;;;;;9.20;5.95;;;;;;;7.01;72.69;92756.16;5110370;27;20234;-76
2023/04/11 01:11:50;;;;;;;9.80;6.30;;;;;;;7.03;72.67;92750.69;5119388;27;20031;-76
2023/04/11 01:14:17;;;;;;;10.65;6.38;;;;;;;7.01;72.76;92745.75;5120952;27;20032;-76
2023/04/11 01:16:46;;;;;;;10.25;6.55;;;;;;;7.00;73.01;92736.38;5123500;27;20059;-76
2023/04/11 01:19:17;;;;;;;9.65;6.40;;;;;;;7.01;72.95;92729.34;5105128;27;20443;-75
2023/04/11 01:21:43;;;;;;;11.80;6.07;;;;;;;6.99;72.89;92719.19;5093848;28;20723;-76
2023/04/11 01:24:08;;;;;;;12.35;6.85;;;;;;;6.97;73.48;92712.69;5124803;27;20027;-76
2023/04/11 01:26:34;;;;;;;9.85;6.10;;;;;;;6.95;73.51;92709.56;5104767;27;20049;-76
2023/04/11 01:29:01;;;;;;;12.05;6.45;;;;;;;6.93;73.45;92696.78;5104844;27;20039;-76
2023/04/11 01:31:27;;;;;;;11.25;6.15;;;;;;;6.87;74.08;92687.44;5107184;27;20092;-76
2023/04/11 01:33:52;;;;;;;8.95;5.72;;;;;;;6.88;73.39;92694.19;5104959;27;20485;-76
2023/04/11 01:36:18;;;;;;;9.98;6.40;;;;;;;6.89;73.78;92695.75;5103728;27;20130;-75
2023/04/11 01:38:44;;;;;;;12.57;6.63;;;;;;;6.84;74.21;92691.31;5121453;27;20042;-76
2023/04/11 01:41:10;;;;;;;14.90;6.25;;;;;;;6.82;74.55;92700.41;5090092;27;20070;-75
2023/04/11 01:43:35;;;;;;;10.00;6.05;;;;;;;6.83;73.57;92704.59;5123192;27;20054;-76
2023/04/11 01:46:01;;;;;;;13.57;6.78;;;;;;;6.84;74.47;92725.13;5125225;27;20034;-76
2023/04/11 01:48:27;;;;;;;9.88;6.15;;;;;;;6.80;74.43;92718.91;5102943;27;20110;-76
2023/04/11 01:50:54;;;;;;;9.70;5.63;;;;;;;6.84;74.26;92730.34;5126587;27;20043;-75
2023/04/11 01:53:20;;;;;;;9.82;5.95;;;;;;;6.90;73.76;92720.75;5099800;28;20035;-77
2023/04/11 01:55:45;;;;;;;11.50;5.85;;;;;;;6.90;74.23;92732.97;5118101;27;20048;-77
2023/04/11 01:58:12;;;;;;;10.85;5.95;;;;;;;6.90;73.59;92727.78;5106988;27;20058;-77
2023/04/11 02:00:38;;;;;;;9.52;6.03;;;;;;;6.84;73.59;92713.94;5093162;27;20035;-77
2023/04/11 02:03:04;;;;;;;10.10;6.32;;;;;;;6.89;73.85;92721.78;5124424;27;20046;-77
2023/04/11 02:05:29;;;;;;;11.00;6.10;;;;;;;6.88;74.08;92720.97;5122089;27;20547;-77
2023/04/11 02:07:55;;;;;;;9.63;6.03;;;;;;;6.89;74.02;92711.38;5107025;27;20039;-77
2023/04/11 02:10:20;;;;;;;10.13;5.93;;;;;;;6.88;73.90;92707.19;5105683;27;20032;-77
2023/04/11 02:12:46;;;;;;;8.82;5.63;;;;;;;6.87;73.82;92703.81;5106418;27;20035;-76
2023/04/11 02:15:12;;;;;;;9.18;5.55;;;;;;;6.86;73.83;92697.03;5104448;27;20031;-75
2023/04/11 02:17:43;;;;;;;9.25;5.93;;;;;;;6.84;73.61;92688.69;5106337;27;20032;-75
2023/04/11 02:20:11;;;;;;;10.65;5.88;;;;;;;6.84;72.99;92688.69;5106144;27;20358;-76
2023/04/11 02:22:37;;;;;;;10.45;5.68;;;;;;;6.84;72.76;92690.53;5117206;27;20036;-77
2023/04/11 02:25:03;;;;;;;9.98;5.68;;;;;;;6.82;72.73;92706.41;5086204;27;20091;-77
2023/04/11 02:27:30;;;;;;;9.27;5.55;;;;;;;6.75;73.27;92687.66;5119940;27;20043;-75
2023/04/11 02:29:55;;;;;;;9.55;6.07;;;;;;;6.79;74.17;92693.91;5104706;27;20046;-75
2023/04/11 02:32:21;;;;;;;9.30;6.25;;;;;;;6.73;74.86;92694.94;5104681;28;20031;-75
2023/04/11 02:34:47;;;;;;;9.85;6.22;;;;;;;6.71;74.77;92688.41;5102852;28;20039;-76
2023/04/11 02:37:12;;;;;;;8.77;6.18;;;;;;;6.68;74.69;92687.13;5121182;27;20420;-75
2023/04/11 02:39:38;;;;;;;11.65;6.22;;;;;;;6.63;75.14;92677.47;5108255;27;20077;-75
2023/04/11 02:42:03;;;;;;;14.27;6.20;;;;;;;6.57;75.12;92664.72;5120622;27;20039;-77
2023/04/11 02:44:31;;;;;;;12.05;5.95;;;;;;;6.52;75.17;92670.69;5102617;28;20039;-77
2023/04/11 02:46:58;;;;;;;9.95;6.03;;;;;;;6.44;74.98;92663.41;5104167;27;20031;-77
2023/04/11 02:49:23;;;;;;;11.07;6.30;;;;;;;6.43;74.72;92652.19;5108534;27;20074;-77
2023/04/11 02:51:49;;;;;;;11.50;6.47;;;;;;;6.37;75.11;92642.84;5103629;27;20062;-77
2023/04/11 02:54:15;;;;;;;10.45;6.25;;;;;;;6.33;75.25;92644.38;5105959;27;20063;-77
2023/04/11 02:56:42;;;;;;;12.55;6.78;;;;;;;6.18;75.13;92629.50;5109982;27;20046;-77
2023/04/11 02:59:07;;;;;;;11.90;6.93;;;;;;;6.24;75.07;92638.13;5104818;27;20032;-77
2023/04/11 03:01:33;;;;;;;9.48;6.18;;;;;;;6.24;74.88;92640.72;5109158;28;20134;-77
2023/04/11 03:03:59;;;;;;;11.57;6.78;;;;;;;6.22;75.62;92640.19;5123448;27;20122;-76
2023/04/11 03:06:34;;;;;;;11.15;6.57;;;;;;;6.17;76.13;92633.16;5101565;28;20048;-77
2023/04/11 03:09:01;;;;;;;11.05;6.80;;;;;;;6.13;76.38;92631.31;5107298;27;20126;-77
2023/04/11 03:11:27;;;;;;;10.63;6.50;;;;;;;6.12;77.06;92619.34;5123093;27;20425;-77
2023/04/11 03:13:53;;;;;;;12.85;6.72;;;;;;;6.10;76.94;92624.00;5099323;28;20566;-76
2023/04/11 03:16:19;;;;;;;10.40;6.28;;;;;;;6.05;76.75;92625.56;5089021;27;20039;-77
2023/04/11 03:18:44;;;;;;;10.00;6.50;;;;;;;6.03;77.15;92638.03;5122727;27;20377;-77
2023/04/11 03:21:11;;;;;;;11.45;6.68;;;;;;;6.07;77.56;92647.91;5097669;27;20547;-77
2023/04/11 03:23:42;;;;;;;10.68;6.40;;;;;;;6.01;77.76;92645.31;5104324;27;20078;-77
2023/04/11 03:26:07;;;;;;;11.15;6.72;;;;;;;6.01;76.86;92645.31;5087846;27;20035;-77
2023/04/11 03:28:33;;;;;;;13.00;6.68;;;;;;;5.95;77.23;92641.13;5105817;27;20092;-77
2023/04/11 03:30:59;;;;;;;12.00;6.70;;;;;;;5.93;76.98;92643.16;5068292;28;20054;-77
2023/04/11 03:33:25;;;;;;;13.57;7.10;;;;;;;5.90;77.06;92645.47;5125133;27;20122;-76
2023/04/11 03:35:50;;;;;;;11.02;6.45;;;;;;;5.91;77.14;92637.44;5122311;27;20106;-76
2023/04/11 03:38:16;;;;;;;11.52;6.03;;;;;;;5.92;77.19;92641.59;5104995;28;20092;-76
2023/04/11 03:40:41;;;;;;;10.52;6.80;;;;;;;5.94;77.39;92644.75;5103693;28;20471;-76
2023/04/11 03:43:11;;;;;;;11.48;7.13;;;;;;;5.91;77.29;92645.22;5102830;27;20046;-76
2023/04/11 03:45:37;;;;;;;10.15;6.28;;;;;;;5.90;77.64;92642.88;5110029;28;20134;-76
2023/04/11 03:48:06;;;;;;;9.90;6.22;;;;;;;5.87;77.47;92633.75;5094284;27;20043;-76
2023/04/11 03:50:51;;;;;;;10.18;6.13;;;;;;;5.84;77.41;92631.69;5129340;27;20568;-76
2023/04/11 03:53:22;;;;;;;10.13;6.43;;;;;;;5.88;77.07;92626.75;5110876;27;20103;-76
2023/04/11 03:55:52;;;;;;;9.90;6.20;;;;;;;5.88;77.23;92622.34;5114625;27;20042;-76
2023/04/11 03:58:20;;;;;;;13.57;6.97;;;;;;;5.88;77.02;92622.34;5111103;27;20043;-76
2023/04/11 04:00:46;;;;;;;11.73;6.45;;;;;;;5.84;77.84;92618.69;5111898;28;20477;-76
2023/04/11 04:03:12;;;;;;;11.65;6.53;;;;;;;5.86;77.41;92615.84;5111258;27;20047;-76
2023/04/11 04:05:40;;;;;;;12.07;6.80;;;;;;;5.81;77.84;92619.97;5108951;27;20043;-76
2023/04/11 04:08:06;;;;;;;9.52;6.75;;;;;;;5.79;77.89;92614.25;5111929;27;20042;-76
2023/04/11 04:10:40;;;;;;;10.27;6.22;;;;;;;5.77;78.05;92612.94;5111620;28;20050;-76
2023/04/11 04:13:05;;;;;;;9.35;5.97;;;;;;;5.76;78.36;92606.19;5123372;27;20051;-76
2023/04/11 04:15:35;;;;;;;11.15;6.72;;;;;;;5.72;78.87;92602.50;5087956;27;20043;-76
2023/04/11 04:18:02;;;;;;;12.65;7.10;;;;;;;5.71;78.81;92603.56;5093248;27;20123;-76
2023/04/11 04:20:46;;;;;;;12.05;6.57;;;;;;;5.67;78.79;92603.28;5103522;27;20070;-76
2023/04/11 04:23:16;;;;;;;10.90;6.43;;;;;;;5.66;78.43;92591.34;5105071;28;20122;-76
2023/04/11 04:25:56;;;;;;;12.23;6.88;;;;;;;5.64;78.31;92593.41;5129272;27;20043;-76
2023/04/11 04:28:25;;;;;;;9.88;6.55;;;;;;;5.67;78.60;92594.72;5108488;27;20414;-76
2023/04/11 04:30:56;;;;;;;12.02;6.80;;;;;;;5.64;78.92;92599.38;5110716;27;20640;-76
2023/04/11 04:33:23;;;;;;;9.55;6.03;;;;;;;5.61;79.12;92599.13;5108295;27;20035;-76
2023/04/11 04:35:51;;;;;;;11.00;6.70;;;;;;;5.59;78.66;92598.59;5109879;27;20086;-75
2023/04/11 04:38:18;;;;;;;14.30;6.80;;;;;;;5.56;79.25;92592.06;5093556;27;20132;-76
2023/04/11 04:40:53;;;;;;;11.60;6.60;;;;;;;5.51;79.13;92599.81;5105967;27;20449;-76
2023/04/11 04:43:22;;;;;;;9.82;6.53;;;;;;;5.48;79.01;92600.34;5109934;27;20055;-76
2023/04/11 04:45:54;;;;;;;14.52;6.93;;;;;;;5.47;79.23;92603.97;5107554;27;20453;-76
2023/04/11 04:48:24;;;;;;;13.30;6.80;;;;;;;5.46;79.22;92607.59;5109105;27;20552;-76
2023/04/11 04:50:51;;;;;;;10.38;6.63;;;;;;;5.47;79.33;92598.78;5108381;28;20059;-76
2023/04/11 04:53:18;;;;;;;11.95;7.15;;;;;;;5.45;79.40;92587.06;5108970;27;20035;-76
2023/04/11 04:55:48;;;;;;;10.82;7.03;;;;;;;5.45;79.17;92585.28;5090926;28;20040;-76
2023/04/11 04:58:16;;;;;;;11.77;6.70;;;;;;;5.45;79.40;92587.88;5108424;27;20485;-76
2023/04/11 05:00:41;;;;;;;12.13;6.85;;;;;;;5.46;79.59;92591.25;5105658;27;20042;-76
2023/04/11 05:03:19;;;;;;;12.05;6.75;;;;;;;5.47;79.04;92588.41;5094987;27;20038;-76
2023/04/11 05:05:45;;;;;;;10.40;6.60;;;;;;;5.45;79.87;92582.69;5110670;27;20032;-77
2023/04/11 05:08:12;;;;;;;14.82;6.55;;;;;;;5.45;79.59;92574.88;5089915;27;20040;-77
2023/04/11 05:10:37;;;;;;;10.70;6.13;;;;;;;5.47;79.98;92566.81;5109121;27;20105;-76
2023/04/11 05:13:05;;;;;;;13.38;7.30;;;;;;;5.47;80.01;92575.41;5102107;28;20039;-77
2023/04/11 05:15:31;;;;;;;10.60;6.40;;;;;;;5.48;80.00;92574.38;5083832;27;20035;-77
2023/04/11 05:17:57;;;;;;;11.32;6.68;;;;;;;5.49;79.83;92567.34;5105184;28;20046;-77
2023/04/11 05:20:25;;;;;;;10.32;6.57;;;;;;;5.52;80.32;92569.47;5103590;27;20077;-77
2023/04/11 05:22:52;;;;;;;13.05;6.68;;;;;;;5.53;80.22;92574.38;5089135;27;20413;-77
2023/04/11 05:25:20;;;;;;;15.85;6.40;;;;;;;5.58;80.03;92576.22;5087230;27;20043;-77
2023/04/11 05:27:46;;;;;;;9.85;6.22;;;;;;;5.62;79.82;92578.06;5112686;27;20030;-77
2023/04/11 05:30:12;;;;;;;12.48;7.43;;;;;;;5.71;79.12;92582.78;5094310;27;20032;-77
2023/04/11 05:32:39;;;;;;;10.90;7.00;;;;;;;5.78;79.45;92568.53;5106487;27;20039;-77
2023/04/11 05:35:05;;;;;;;10.35;6.72;;;;;;;5.87;79.64;92562.84;5110141;27;20095;-80
2023/04/11 05:37:43;;;;;;;10.90;6.70;;;;;;;5.97;80.51;92565.53;5117134;28;20036;-80
2023/04/11 05:40:09;;;;;;;10.13;6.65;;;;;;;6.04;81.33;92561.63;5092482;27;20039;-79
2023/04/11 05:42:35;;;;;;;13.25;6.55;;;;;;;6.17;79.97;92577.75;5113204;28;20047;-80
2023/04/11 05:45:00;;;;;;;11.68;7.53;;;;;;;6.28;79.73;92570.78;5108175;28;20028;-79
2023/04/11 05:47:26;;;;;;;9.65;6.05;;;;;;;6.40;78.27;92561.72;5087060;28;20047;-80
2023/04/11 05:49:52;;;;;;;9.35;5.85;;;;;;;6.53;77.62;92557.03;5103205;28;20035;-79
2023/04/11 05:52:18;;;;;;;13.63;6.20;;;;;;;6.64;77.39;92559.41;5103090;28;20040;-80
2023/04/11 05:54:44;;;;;;;10.38;6.40;;;;;;;6.75;76.59;92554.19;5116112;28;20062;-78
2023/04/11 05:57:09;;;;;;;10.95;6.70;;;;;;;6.85;77.54;92560.19;5109313;28;20032;-79
2023/04/11 05:59:35;;;;;;;12.60;7.28;;;;;;;7.01;77.71;92553.13;5113506;28;20031;-78
2023/04/11 06:02:01;;;;;;;12.43;6.68;;;;;;;7.16;76.55;92543.72;5116221;28;20035;-77
2023/04/11 06:04:27;;;;;;;11.85;6.72;;;;;;;7.40;74.60;92557.75;5110890;28;20385;-78
2023/04/11 06:06:52;;;;;;;11.02;6.30;;;;;;;7.64;75.13;92552.75;5110355;28;20529;-78
2023/04/11 06:09:19;;;;;;;11.18;6.60;;;;;;;7.92;72.68;92540.91;5095204;28;20557;-78
2023/04/11 06:11:45;;;;;;;12.88;6.40;;;;;;;8.27;71.34;92549.59;5096648;28;20032;-77
2023/04/11 06:14:10;;;;;;;11.02;6.10;;;;;;;8.81;67.68;92553.19;5102089;28;20481;-78
2023/04/11 06:16:38;;;;;;;13.52;6.53;;;;;;;9.64;65.07;92556.59;5118198;28;20027;-79
2023/04/11 06:19:04;;;;;;;8.65;5.70;;;;;;;10.75;61.31;92555.47;5108486;28;20047;-78
2023/04/11 06:21:32;;;;;;;12.10;6.32;;;;;;;11.73;59.22;92564.34;5115711;28;20039;-78
2023/04/11 06:24:04;;;;;;;10.23;6.10;;;;;;;12.81;55.16;92560.31;5102505;28;20028;-78
2023/04/11 06:26:30;;;;;;;8.63;5.68;;;;;;;13.31;54.04;92561.00;5109066;28;20035;-78
2023/04/11 06:28:56;;;;;;;10.77;6.20;;;;;;;14.11;50.56;92565.53;5104026;28;20126;-78
2023/04/11 06:31:21;;;;;;;9.77;7.10;;;;;;;14.17;49.21;92561.69;5104086;28;20028;-79
2023/04/11 06:33:47;;;;;;;8.05;5.43;;;;;;;14.21;46.46;92546.84;5099022;28;20028;-79
2023/04/11 06:36:12;;;;;;;8.75;5.63;;;;;;;13.17;49.72;92546.34;5099720;28;20539;-79
2023/04/11 06:38:39;;;;;;;9.05;5.40;;;;;;;12.45;51.30;92547.97;5112943;28;20067;-79
2023/04/11 06:41:05;;;;;;;8.07;5.22;;;;;;;12.32;53.11;92546.94;5109534;28;20482;-79
2023/04/11 06:43:31;;;;;;;9.75;5.13;;;;;;;12.07;53.64;92550.88;5115382;27;20060;-78
2023/04/11 06:45:56;;;;;;;8.88;5.15;;;;;;;12.01;54.30;92549.41;5125991;27;20046;-78
2023/04/11 06:48:23;;;;;;;9.45;5.57;;;;;;;11.34;56.57;92560.31;5135405;27;20035;-76
2023/04/11 06:50:48;;;;;;;9.10;5.57;;;;;;;11.16;57.43;92561.91;5112898;27;20697;-79
2023/04/11 06:53:14;;;;;;;9.57;5.75;;;;;;;10.91;57.17;92556.00;5130333;27;20168;-79
2023/04/11 06:55:40;;;;;;;8.60;5.50;;;;;;;10.74;58.42;92545.28;5126641;27;20036;-79
2023/04/11 06:58:05;;;;;;;8.45;5.05;;;;;;;10.46;60.94;92545.16;5108279;27;20038;-77
2023/04/11 07:00:31;;;;;;;11.02;5.32;;;;;;;10.36;61.92;92555.78;5128912;27;20447;-78
2023/04/11 07:02:56;;;;;;;8.43;4.78;;;;;;;10.33;61.87;92551.88;5128724;27;20072;-78
2023/04/11 07:05:22;;;;;;;7.93;5.22;;;;;;;10.39;61.01;92539.50;5114478;27;20023;-76
2023/04/11 07:07:47;;;;;;;9.30;5.55;;;;;;;10.35;62.00;92538.50;5131861;27;20035;-78
2023/04/11 07:10:13;;;;;;;10.02;5.50;;;;;;;10.44;61.88;92531.56;5106444;28;20413;-78
2023/04/11 07:12:38;;;;;;;10.43;5.60;;;;;;;10.65;60.04;92533.91;5136767;27;20027;-78
2023/04/11 07:15:05;;;;;;;8.88;5.30;;;;;;;11.17;60.62;92524.19;5125098;27;20039;-78
2023/04/11 07:17:30;;;;;;;11.35;5.80;;;;;;;11.65;58.92;92522.00;5130695;27;20122;-78
2023/04/11 07:19:56;;;;;;;10.90;5.38;;;;;;;11.93;57.13;92522.00;5084540;27;20126;-79
2023/04/11 07:22:22;;;;;;;12.75;5.50;;;;;;;12.11;56.88;92515.09;5113781;27;20039;-77
2023/04/11 07:24:51;;;;;;;8.07;4.20;;;;;;;12.18;55.39;92512.84;5122147;27;20027;-78
2023/04/11 07:27:17;;;;;;;7.65;4.13;;;;;;;12.02;54.48;92520.28;5121985;27;20539;-78
2023/04/11 07:29:43;;;;;;;8.20;5.30;;;;;;;11.83;56.04;92522.19;5123232;27;20047;-79
2023/04/11 07:32:08;;;;;;;8.82;5.22;;;;;;;11.77;56.96;92521.50;5132590;27;20031;-79
2023/04/11 07:34:34;;;;;;;13.52;5.45;;;;;;;11.53;55.69;92519.09;5088604;28;20555;-78
2023/04/11 07:37:00;;;;;;;12.60;5.47;;;;;;;11.27;58.43;92516.13;5088596;28;20130;-78
2023/04/11 07:39:26;;;;;;;7.95;5.25;;;;;;;10.96;59.92;92518.50;5099311;28;20039;-79
2023/04/11 07:41:52;;;;;;;8.80;5.43;;;;;;;10.85;60.88;92525.72;5104076;28;20408;-77
2023/04/11 07:44:18;;;;;;;10.57;5.82;;;;;;;10.79;60.30;92516.41;5112019;28;20063;-79
2023/04/11 07:46:45;;;;;;;8.60;5.30;;;;;;;11.19;59.83;92522.03;5118651;28;20047;-79
2023/04/11 07:49:10;;;;;;;9.00;4.68;;;;;;;11.43;60.36;92517.41;5124204;28;20039;-77
2023/04/11 07:51:36;;;;;;;9.52;5.97;;;;;;;11.73;54.91;92506.63;5106130;28;20071;-78
2023/04/11 07:54:02;;;;;;;13.18;5.55;;;;;;;11.86;55.14;92501.38;5089765;28;20052;-78
2023/04/11 07:56:27;;;;;;;6.90;3.60;;;;;;;12.35;54.41;92495.72;5119904;28;20046;-77
2023/04/11 07:58:53;;;;;;;8.10;4.97;;;;;;;12.24;54.80;92493.28;5134016;28;20127;-78
2023/04/11 08:01:24;;;;;;;8.18;4.85;;;;;;;12.20;53.23;92481.06;5100424;28;20047;-78
2023/04/11 08:03:53;;;;;;;3.78;2.42;;;;;;;12.20;53.73;92492.31;5121329;28;20043;-78
2023/04/11 08:06:19;;;;;;;6.90;4.40;;;;;;;12.00;53.59;92490.13;5132270;28;20031;-78
2023/04/11 08:08:46;;;;;;;14.25;5.50;;;;;;;12.20;53.51;92492.31;5081233;28;20438;-78
2023/04/11 08:11:12;;;;;;;7.97;4.72;;;;;;;12.39;50.54;92486.16;5108055;28;20035;-79
2023/04/11 08:13:38;;;;;;;8.50;5.50;;;;;;;12.54;51.76;92472.69;5104559;28;20081;-77
2023/04/11 08:16:06;;;;;;;14.23;5.60;;;;;;;12.70;51.70;92473.13;5127257;28;20103;-80
2023/04/11 08:18:34;;;;;;;12.48;4.43;;;;;;;12.42;51.46;92475.06;5120390;28;20032;-78
2023/04/11 08:21:00;;;;;;;9.00;5.28;;;;;;;12.24;54.01;92463.66;5129062;28;20023;-78
2023/04/11 08:23:25;;;;;;;8.43;5.53;;;;;;;12.32;52.32;92468.19;5121438;28;20057;-80
2023/04/11 08:25:51;;;;;;;8.48;5.88;;;;;;;12.10;52.18;92463.69;5125787;28;20039;-79
2023/04/11 08:28:17;;;;;;;9.18;5.60;;;;;;;12.23;51.57;92457.63;5101587;28;20071;-79
2023/04/11 08:30:42;;;;;;;10.27;5.97;;;;;;;12.11;52.71;92453.97;5108768;27;20040;-78
2023/04/11 08:33:08;;;;;;;11.25;6.40;;;;;;;12.42;51.74;92469.81;5114587;27;20122;-77
2023/04/11 08:35:35;;;;;;;28.90;5.38;;;;;;;12.88;50.77;92468.75;5115461;28;20509;-80
2023/04/11 08:38:01;;;;;;;9.10;4.40;;;;;;;12.83;50.73;92464.38;5134750;27;20388;-79
2023/04/11 08:40:27;;;;;;;9.20;5.43;;;;;;;13.18;50.84;92474.31;5138186;27;20039;-79
2023/04/11 08:42:58;;;;;;;12.05;5.80;;;;;;;13.51;50.73;92467.69;5128849;27;20131;-79
2023/04/11 08:45:24;;;;;;;8.15;5.20;;;;;;;13.67;49.42;92454.13;5124895;27;20039;-79
2023/04/11 08:47:50;;;;;;;6.38;4.22;;;;;;;13.42;49.57;92463.47;5111570;27;20373;-79
2023/04/11 08:50:15;;;;;;;10.20;5.60;;;;;;;13.58;49.90;92472.50;5107109;28;20039;-79
2023/04/11 08:52:43;;;;;;;8.15;4.82;;;;;;;13.89;49.26;92461.91;5117452;27;20497;-79
2023/04/11 08:55:09;;;;;;;6.47;4.28;;;;;;;13.68;48.49;92455.66;5124894;27;20031;-78
2023/04/11 08:57:36;;;;;;;6.15;3.58;;;;;;;13.57;49.11;92455.16;5104802;28;20043;-79
2023/04/11 09:00:17;;;;;;;7.10;5.15;;;;;;;13.81;48.79;92454.00;5133174;27;20033;-79
2023/04/11 09:03:03;;;;;;;10.38;4.38;;;;;;;13.84;48.34;92448.88;5127915;27;20443;-79
2023/04/11 09:05:34;;;;;;;12.82;5.50;;;;;;;13.92;49.07;92444.75;5130372;27;20114;-79
2023/04/11 09:08:02;;;;;;;10.27;4.95;;;;;;;13.63;49.26;92430.28;5137446;27;20056;-79
2023/04/11 09:10:28;;;;;;;7.78;5.15;;;;;;;13.54;50.29;92419.72;5132916;27;20028;-79
2023/04/11 09:12:55;;;;;;;11.18;5.60;;;;;;;13.74;48.29;92423.66;5112280;27;20448;-79
2023/04/11 09:15:23;;;;;;;8.02;5.32;;;;;;;13.51;49.32;92424.84;5111257;27;20051;-79
2023/04/11 09:17:49;;;;;;;9.68;4.40;;;;;;;13.45;48.07;92426.06;5124426;27;20074;-78
2023/04/11 09:20:20;;;;;;;8.18;5.32;;;;;;;13.38;48.80;92437.00;5084725;28;20554;-77
2023/04/11 09:22:49;;;;;;;7.15;3.45;;;;;;;13.31;48.28;92426.94;5115123;27;20035;-79
2023/04/11 09:25:16;;;;;;;10.45;5.88;;;;;;;13.05;49.20;92426.03;5111318;27;20531;-78
2023/04/11 09:27:41;;;;;;;9.75;4.50;;;;;;;13.18;49.64;92421.75;5104450;28;20067;-79
2023/04/11 09:30:21;;;;;;;8.73;5.57;;;;;;;13.23;49.58;92403.22;5121962;27;20564;-80
2023/04/11 09:32:47;;;;;;;7.63;4.82;;;;;;;13.30;48.45;92425.38;5109694;27;20038;-79
2023/04/11 09:35:19;;;;;;;9.57;6.00;;;;;;;13.44;48.91;92417.41;5116350;27;20043;-79
2023/04/11 09:37:47;;;;;;;8.55;4.82;;;;;;;13.71;47.77;92412.97;5113153;27;20038;-79
2023/04/11 09:40:15;;;;;;;6.47;4.15;;;;;;;13.79;46.68;92403.56;5126210;27;20102;-78
2023/04/11 09:42:41;;;;;;;8.60;5.43;;;;;;;13.70;47.30;92408.78;5117063;27;20106;-78
2023/04/11 09:45:20;;;;;;;8.57;5.43;;;;;;;13.75;47.48;92412.03;5120331;27;20054;-79
2023/04/11 09:47:47;;;;;;;9.35;5.30;;;;;;;13.79;47.41;92414.84;5130436;27;20382;-79
2023/04/11 09:50:13;;;;;;;8.98;4.22;;;;;;;14.04;44.77;92399.41;5127091;27;20058;-79
2023/04/11 09:52:41;;;;;;;9.13;5.32;;;;;;;13.57;46.82;92401.78;5127762;27;20036;-79
2023/04/11 09:55:19;;;;;;;12.10;5.47;;;;;;;13.78;48.17;92386.19;5124177;27;20039;-78
2023/04/11 09:57:47;;;;;;;10.35;5.38;;;;;;;13.93;47.30;92381.25;5126866;27;20042;-78
2023/04/11 10:00:18;;;;;;;11.93;5.97;;;;;;;13.77;47.81;92382.03;5126100;27;20406;-78
2023/04/11 10:02:45;;;;;;;10.82;5.32;;;;;;;13.94;48.32;92374.94;5128048;27;20070;-80
2023/04/11 10:05:12;;;;;;;8.88;5.05;;;;;;;13.94;45.53;92369.66;5126347;27;20035;-80
2023/04/11 10:08:04;;;;;;;8.88;5.35;;;;;;;13.90;46.11;92378.50;5133243;27;20429;-80
2023/04/11 10:10:31;;;;;;;4.77;3.17;;;;;;;14.09;46.05;92372.91;5124795;27;20035;-78
2023/04/11 10:12:56;;;;;;;11.50;5.82;;;;;;;14.22;46.61;92369.34;5126323;27;20273;-78
2023/04/11 10:15:22;;;;;;;9.68;5.88;;;;;;;14.26;45.17;92375.53;5128982;27;20552;-78
2023/04/11 10:18:14;;;;;;;9.57;6.13;;;;;;;14.20;45.75;92371.50;5128210;27;20096;-79
2023/04/11 10:20:42;;;;;;;7.93;5.03;;;;;;;14.07;45.29;92367.19;5126927;27;20119;-79
2023/04/11 10:23:08;;;;;;;8.40;4.88;;;;;;;14.01;46.70;92369.22;5125109;27;20054;-79
2023/04/11 10:25:54;;;;;;;5.05;3.20;;;;;;;13.84;47.01;92372.59;5118057;27;20039;-79
2023/04/11 10:28:38;;;;;;;10.02;5.80;;;;;;;13.82;46.41;92372.13;5121824;27;20532;-79
2023/04/11 10:31:05;;;;;;;8.07;5.60;;;;;;;13.82;48.22;92358.19;5132543;27;20148;-79
2023/04/11 10:33:32;;;;;;;8.70;5.10;;;;;;;13.86;47.56;92348.59;5129587;27;20031;-79
2023/04/11 10:36:08;;;;;;;7.85;4.25;;;;;;;13.86;46.79;92351.25;5126240;27;20068;-79
2023/04/11 10:38:40;;;;;;;7.57;4.80;;;;;;;14.08;48.35;92358.22;5126365;27;20088;-78
2023/04/11 10:41:17;;;;;;;8.27;5.10;;;;;;;14.42;47.05;92338.97;5120957;27;20433;-79
2023/04/11 10:43:44;;;;;;;8.05;4.60;;;;;;;14.46;47.00;92324.09;5142605;27;20371;-78
2023/04/11 10:46:17;;;;;;;6.97;3.92;;;;;;;14.62;45.13;92329.66;5122804;27;20042;-78
2023/04/11 10:49:31;;;;;;;8.65;5.30;;;;;;;14.40;45.46;92330.59;5149253;27;20031;-79
2023/04/11 10:52:20;;;;;;;6.45;4.30;;;;;;;14.46;46.07;92342.53;5104947;27;20043;-79
2023/04/11 10:54:46;;;;;;;7.88;5.00;;;;;;;14.64;47.29;92337.25;5118536;27;20066;-78
2023/04/11 10:57:12;;;;;;;9.32;4.88;;;;;;;14.70;46.89;92336.78;5128896;27;20430;-78
2023/04/11 10:59:38;;;;;;;7.40;4.18;;;;;;;14.75;46.05;92330.56;5144471;27;20027;-80
2023/04/11 11:02:03;;;;;;;6.28;3.65;;;;;;;14.80;44.34;92326.97;5147989;27;20031;-79
2023/04/11 11:04:30;;;;;;;9.10;5.63;;;;;;;14.74;45.99;92326.38;5124607;27;20355;-79
2023/04/11 11:06:57;;;;;;;6.72;3.97;;;;;;;14.74;44.89;92321.88;5153365;27;20042;-80
2023/04/11 11:09:22;;;;;;;7.82;5.30;;;;;;;14.69;47.31;92326.53;5120873;27;20156;-80
2023/04/11 11:12:05;;;;;;;7.25;4.70;;;;;;;14.94;45.01;92324.91;5145320;27;20488;-80
2023/04/11 11:14:31;;;;;;;8.02;5.07;;;;;;;14.78;45.67;92314.13;5144936;27;20072;-80
2023/04/11 11:16:57;;;;;;;7.28;4.55;;;;;;;14.80;45.00;92319.84;5147021;27;20031;-80
2023/04/11 11:19:22;;;;;;;6.97;3.72;;;;;;;14.68;43.52;92323.16;5128350;27;20031;-80
2023/04/11 11:21:50;;;;;;;6.57;3.95;;;;;;;14.74;44.15;92307.91;5126849;27;20080;-80
2023/04/11 11:24:25;;;;;;;7.28;4.72;;;;;;;14.93;44.86;92302.28;5108261;27;20063;-79
2023/04/11 11:26:56;;;;;;;5.45;3.92;;;;;;;15.14;44.01;92300.47;5153389;27;20043;-77
2023/04/11 11:29:33;;;;;;;8.57;5.15;;;;;;;14.93;43.68;92303.06;5132172;27;20035;-78
2023/04/11 11:32:02;;;;;;;7.75;3.70;;;;;;;15.12;43.94;92293.97;5147952;27;20026;-78
2023/04/11 11:34:29;;;;;;;8.73;5.03;;;;;;;14.83;43.13;92292.84;5148721;27;20059;-77
2023/04/11 11:36:55;;;;;;;5.68;3.67;;;;;;;14.94;43.43;92301.19;5153574;27;20038;-78